createdAt,value
2022-10-14T00:02:11.287Z,79.67
2022-10-14T00:04:40.444Z,80.77
2022-10-14T00:07:10.481Z,67.23
2022-10-14T00:09:42.619Z,68.90
2022-10-14T00:12:11.394Z,74.87
2022-10-14T00:14:42.539Z,90.60
2022-10-14T00:17:11.858Z,79.30
2022-10-14T00:19:40.942Z,75.87
2022-10-14T00:22:09.526Z,87.10
2022-10-14T00:24:41.106Z,58.73
2022-10-14T00:27:11.780Z,84.00
2022-10-14T00:29:41.554Z,88.60
2022-10-14T00:32:10.424Z,75.73
2022-10-14T00:34:39.189Z,86.57
2022-10-14T00:37:08.796Z,100.33
2022-10-14T00:39:38.636Z,77.40
2022-10-14T00:42:07.415Z,94.53
2022-10-14T00:45:10.845Z,85.03
2022-10-14T00:47:40.162Z,87.47
2022-10-14T00:50:09.589Z,74.70
2022-10-14T00:52:39.110Z,82.17
2022-10-14T00:55:13.851Z,91.10
2022-10-14T00:57:42.773Z,89.13
2022-10-14T01:00:18.636Z,76.27
2022-10-14T01:02:48.131Z,76.10
2022-10-14T01:05:21.603Z,83.07
2022-10-14T01:08:00.967Z,83.90
2022-10-14T01:10:38.979Z,84.30
2022-10-14T01:13:19.243Z,75.97
2022-10-14T01:15:59.612Z,75.50
2022-10-14T01:18:44.472Z,74.33
2022-10-14T01:21:22.671Z,68.27
2022-10-14T01:24:24.810Z,74.63
2022-10-14T01:27:20.646Z,62.67
2022-10-14T01:30:12.588Z,77.00
2022-10-14T01:32:50.828Z,69.53
2022-10-14T01:35:29.749Z,68.43
2022-10-14T01:38:02.315Z,66.17
2022-10-14T01:40:36.973Z,73.23
2022-10-14T01:43:07.296Z,57.63
2022-10-14T01:45:42.887Z,76.60
2022-10-14T01:48:13.284Z,94.17
2022-10-14T01:50:45.166Z,76.47
2022-10-14T01:53:17.741Z,95.07
2022-10-14T01:55:48.922Z,85.93
2022-10-14T01:58:19.218Z,91.30
2022-10-14T02:00:50.533Z,74.00
2022-10-14T02:03:22.246Z,88.17
2022-10-14T02:05:56.081Z,100.53
2022-10-14T02:08:40.036Z,92.23
2022-10-14T02:11:12.783Z,86.07
2022-10-14T02:13:53.126Z,99.40
2022-10-14T02:16:34.109Z,78.20
2022-10-14T02:19:10.918Z,88.10
2022-10-14T02:21:43.450Z,106.57
2022-10-14T02:24:20.208Z,93.03
2022-10-14T02:26:51.795Z,105.00
2022-10-14T02:29:22.257Z,87.17
2022-10-14T02:31:55.783Z,91.53
2022-10-14T02:34:27.004Z,77.00
2022-10-14T02:36:57.301Z,80.67
2022-10-14T02:39:31.415Z,103.07
2022-10-14T02:42:00.268Z,100.53
2022-10-14T02:47:10.035Z,97.83
2022-10-14T02:49:39.067Z,109.97
2022-10-14T02:52:09.820Z,123.10
2022-10-14T02:54:39.242Z,108.77
2022-10-14T02:57:07.746Z,104.43
2022-10-14T02:59:36.253Z,121.00
2022-10-14T03:02:13.059Z,103.30
2022-10-14T03:04:47.988Z,122.57
2022-10-14T03:07:17.016Z,99.63
2022-10-14T03:09:46.244Z,106.67
2022-10-14T03:12:17.252Z,106.40
2022-10-14T03:14:45.861Z,99.03
2022-10-14T03:17:20.795Z,87.43
2022-10-14T03:19:50.017Z,110.77
2022-10-14T03:22:21.719Z,90.90
2022-10-14T03:24:50.748Z,88.23
2022-10-14T03:27:20.854Z,86.50
2022-10-14T03:29:49.810Z,84.50
2022-10-14T03:32:22.278Z,81.37
2022-10-14T03:34:53.140Z,83.20
2022-10-14T03:37:23.322Z,90.27
2022-10-14T03:39:53.187Z,93.27
2022-10-14T03:42:22.559Z,80.70
2022-10-14T03:44:51.829Z,86.03
2022-10-14T03:47:27.207Z,81.80
2022-10-14T03:49:57.412Z,80.30
2022-10-14T03:52:26.090Z,78.27
2022-10-14T03:54:54.565Z,77.13
2022-10-14T03:57:24.666Z,78.40
2022-10-14T03:59:53.780Z,88.20
2022-10-14T04:02:24.051Z,84.80
2022-10-14T04:04:58.380Z,78.67
2022-10-14T04:07:30.286Z,81.90
2022-10-14T04:09:59.289Z,71.17
2022-10-14T04:12:28.096Z,78.07
2022-10-14T04:14:57.971Z,110.23
2022-10-14T04:17:28.042Z,82.30
2022-10-14T04:19:56.942Z,103.20
2022-10-14T04:22:25.537Z,99.37
2022-10-14T04:24:54.193Z,82.00
2022-10-14T04:27:23.840Z,93.43
2022-10-14T04:29:52.997Z,103.77
2022-10-14T04:32:23.282Z,98.67
2022-10-14T04:34:56.909Z,95.50
2022-10-14T04:37:25.488Z,88.13
2022-10-14T04:39:54.220Z,104.03
2022-10-14T04:42:23.487Z,104.80
2022-10-14T04:44:52.372Z,98.73
2022-10-14T04:47:21.047Z,98.60
2022-10-14T04:49:49.717Z,95.00
2022-10-14T04:52:20.833Z,98.37
2022-10-14T04:54:49.563Z,102.60
2022-10-14T04:57:18.332Z,96.47
2022-10-14T04:59:47.167Z,97.57
2022-10-14T05:02:17.717Z,79.37
2022-10-14T05:04:46.272Z,91.00
2022-10-14T05:07:16.669Z,93.20
2022-10-14T05:09:50.349Z,107.10
2022-10-14T05:12:20.848Z,101.60
2022-10-14T05:14:50.263Z,98.43
2022-10-14T05:17:18.760Z,111.97
2022-10-14T05:19:48.287Z,98.60
2022-10-14T05:22:17.895Z,97.37
2022-10-14T05:24:52.025Z,102.83
2022-10-14T05:27:20.578Z,106.83
2022-10-14T05:29:51.138Z,86.93
2022-10-14T05:32:20.286Z,84.73
2022-10-14T05:34:49.271Z,100.13
2022-10-14T05:37:18.039Z,95.60
2022-10-14T05:39:48.885Z,97.37
2022-10-14T05:42:17.844Z,105.10
2022-10-14T05:44:46.307Z,95.90
2022-10-14T05:47:15.398Z,97.73
2022-10-14T05:49:45.520Z,89.63
2022-10-14T05:52:14.491Z,87.53
2022-10-14T05:54:44.433Z,77.90
2022-10-14T05:57:14.390Z,88.03
2022-10-14T05:59:42.873Z,88.97
2022-10-14T06:02:12.211Z,78.20
2022-10-14T06:04:42.723Z,75.93
2022-10-14T06:07:11.448Z,80.03
2022-10-14T06:09:40.410Z,74.17
2022-10-14T06:12:09.913Z,71.37
2022-10-14T06:14:39.839Z,80.00
2022-10-14T06:17:08.905Z,77.87
2022-10-14T06:19:41.958Z,70.10
2022-10-14T06:22:10.818Z,66.87
2022-10-14T06:24:40.678Z,73.40
2022-10-14T06:27:09.473Z,61.17
2022-10-14T06:29:40.358Z,63.37
2022-10-14T06:32:10.849Z,65.53
2022-10-14T06:34:39.338Z,77.10
2022-10-14T06:37:08.038Z,72.13
2022-10-14T06:39:37.460Z,62.53
2022-10-14T06:42:09.553Z,63.20
2022-10-14T06:44:43.317Z,61.57
2022-10-14T06:47:12.182Z,52.97
2022-10-14T06:49:40.900Z,61.50
2022-10-14T06:52:09.996Z,51.47
2022-10-14T06:54:39.954Z,51.40
2022-10-14T06:57:09.337Z,61.23
2022-10-14T06:59:39.291Z,44.37
2022-10-14T07:02:10.180Z,46.97
2022-10-14T07:04:40.088Z,47.33
2022-10-14T07:07:09.463Z,46.37
2022-10-14T07:09:39.234Z,37.73
2022-10-14T07:12:09.089Z,48.53
2022-10-14T07:14:38.323Z,41.33
2022-10-14T07:17:10.117Z,46.07
2022-10-14T07:19:38.639Z,42.43
2022-10-14T07:22:07.272Z,39.30
2022-10-14T07:24:36.547Z,42.93
2022-10-14T07:27:06.663Z,33.83
2022-10-14T07:29:35.397Z,34.87
2022-10-14T07:32:05.313Z,34.27
2022-10-14T07:34:35.676Z,25.80
2022-10-14T07:37:07.510Z,30.80
2022-10-14T07:39:36.649Z,28.70
2022-10-14T07:42:05.614Z,28.67
2022-10-14T07:44:35.040Z,26.60
2022-10-14T07:47:04.468Z,27.27
2022-10-14T07:49:37.036Z,24.53
2022-10-14T07:52:06.400Z,24.43
2022-10-14T07:54:35.035Z,23.43
2022-10-14T07:57:03.696Z,20.33
2022-10-14T07:59:32.925Z,24.87
2022-10-14T08:02:01.972Z,21.60
2022-10-14T08:04:31.091Z,21.50
2022-10-14T08:07:04.083Z,20.93
2022-10-14T08:09:33.261Z,24.87
2022-10-14T08:12:04.300Z,19.30
2022-10-14T08:14:33.077Z,19.70
2022-10-14T08:17:01.723Z,16.93
2022-10-14T08:19:30.996Z,17.37
2022-10-14T08:22:06.266Z,16.33
2022-10-14T08:24:35.075Z,15.33
2022-10-14T08:27:05.786Z,15.63
2022-10-14T08:29:36.218Z,14.70
2022-10-14T08:32:05.460Z,15.00
2022-10-14T08:34:34.562Z,13.57
2022-10-14T08:37:05.761Z,13.93
2022-10-14T08:39:35.068Z,13.67
2022-10-14T08:42:28.653Z,12.30
2022-10-14T08:45:01.216Z,10.87
2022-10-14T08:47:37.679Z,11.93
2022-10-14T08:50:16.633Z,9.73
2022-10-14T08:52:52.581Z,9.93
2022-10-14T08:55:30.524Z,9.53
2022-10-14T08:58:05.086Z,8.37
2022-10-14T09:00:38.586Z,8.33
2022-10-14T09:03:18.372Z,7.33
2022-10-14T09:05:48.970Z,7.97
2022-10-14T09:08:27.327Z,8.60
2022-10-14T09:10:59.616Z,9.17
2022-10-14T09:13:33.229Z,11.73
2022-10-14T09:16:08.087Z,9.43
2022-10-14T09:18:43.874Z,8.93
2022-10-14T09:21:34.027Z,8.43
2022-10-14T09:24:16.916Z,8.17
2022-10-14T09:26:52.339Z,7.30
2022-10-14T09:29:28.487Z,7.57
2022-10-14T09:32:04.183Z,7.17
2022-10-14T09:34:36.687Z,6.13
2022-10-14T09:37:33.202Z,5.47
2022-10-14T09:40:16.099Z,4.87
2022-10-14T09:42:50.809Z,10.13
2022-10-14T09:45:22.833Z,5.17
2022-10-14T09:47:56.386Z,5.30
2022-10-14T09:50:29.007Z,3.90
2022-10-14T09:53:03.104Z,3.20
2022-10-14T09:55:34.305Z,3.00
2022-10-14T09:58:06.766Z,3.10
2022-10-14T10:00:39.037Z,4.33
2022-10-14T10:03:12.541Z,3.60
2022-10-14T10:05:43.926Z,3.77
2022-10-14T10:08:20.602Z,3.77
2022-10-14T10:11:07.182Z,3.40
2022-10-14T10:13:44.876Z,3.00
2022-10-14T10:16:23.494Z,3.10
2022-10-14T10:18:54.193Z,3.67
2022-10-14T10:21:26.679Z,3.70
2022-10-14T10:24:05.726Z,2.80
2022-10-14T10:26:38.677Z,2.80
2022-10-14T10:29:08.394Z,2.97
2022-10-14T10:32:07.987Z,4.07
2022-10-14T10:34:59.049Z,3.13
2022-10-14T10:37:30.521Z,2.70
2022-10-14T10:40:26.063Z,3.57
2022-10-14T10:43:11.758Z,3.20
2022-10-14T10:45:57.741Z,3.13
2022-10-14T10:48:34.924Z,2.20
2022-10-14T10:51:10.708Z,2.63
2022-10-14T10:53:56.405Z,3.17
2022-10-14T10:56:34.545Z,3.30
2022-10-14T10:59:27.170Z,2.13
2022-10-14T11:02:14.574Z,4.43
2022-10-14T11:04:48.807Z,2.83
2022-10-14T11:07:42.577Z,2.90
2022-10-14T11:10:40.268Z,2.27
2022-10-14T11:13:23.315Z,2.93
2022-10-14T11:16:04.161Z,8.83
2022-10-14T11:18:47.811Z,8.03
2022-10-14T11:21:26.607Z,4.27
2022-10-14T11:24:05.247Z,4.37
2022-10-14T11:26:59.864Z,16.67
2022-10-14T11:30:09.215Z,34.73
2022-10-14T11:32:50.463Z,12.20
2022-10-14T11:35:29.069Z,9.43
2022-10-14T11:38:11.414Z,11.80
2022-10-14T11:40:46.928Z,24.63
2022-10-14T11:43:28.603Z,13.00
2022-10-14T11:46:02.133Z,13.33
2022-10-14T11:48:37.218Z,37.03
2022-10-14T11:51:17.511Z,9.83
2022-10-14T11:53:57.445Z,13.87
2022-10-14T11:56:39.143Z,17.57
2022-10-14T11:59:28.618Z,13.77
2022-10-14T12:02:02.935Z,14.27
2022-10-14T12:04:37.367Z,10.87
2022-10-14T12:07:14.275Z,14.57
2022-10-14T12:09:48.676Z,9.43
2022-10-14T12:12:21.648Z,7.60
2022-10-14T12:14:55.523Z,16.43
2022-10-14T12:17:29.274Z,13.33
2022-10-14T12:20:09.520Z,10.27
2022-10-14T12:22:39.948Z,4.97
2022-10-14T12:25:17.763Z,7.67
2022-10-14T12:27:46.811Z,8.37
2022-10-14T12:30:36.903Z,13.93
2022-10-14T12:33:08.150Z,7.20
2022-10-14T12:36:06.966Z,5.47
2022-10-14T12:38:36.438Z,5.30
2022-10-14T12:41:40.080Z,5.80
2022-10-14T12:44:15.673Z,7.27
2022-10-14T12:46:48.493Z,6.03
2022-10-14T12:49:38.795Z,10.70
2022-10-14T12:52:10.635Z,10.17
2022-10-14T12:54:49.135Z,8.33
2022-10-14T12:57:28.146Z,6.97
2022-10-14T13:00:00.761Z,8.80
2022-10-14T13:02:36.795Z,7.37
2022-10-14T13:05:10.801Z,8.77
2022-10-14T13:07:49.072Z,8.17
2022-10-14T13:10:47.515Z,8.70
2022-10-14T13:13:51.103Z,12.13
2022-10-14T13:16:57.939Z,8.57
2022-10-14T13:19:47.150Z,9.13
2022-10-14T13:22:39.591Z,9.07
2022-10-14T13:25:33.620Z,8.53
2022-10-14T13:28:21.389Z,9.50
2022-10-14T13:31:04.053Z,13.13
2022-10-14T13:33:38.859Z,11.53
2022-10-14T13:36:15.858Z,10.77
2022-10-14T13:38:49.443Z,12.37
2022-10-14T13:41:30.671Z,12.20
2022-10-14T13:44:02.516Z,11.70
2022-10-14T13:46:39.278Z,11.80
2022-10-14T13:49:13.825Z,9.77
2022-10-14T13:51:49.437Z,12.50
2022-10-14T13:54:22.370Z,12.17
2022-10-14T14:02:44.658Z,12.90
2022-10-14T14:05:17.711Z,13.53
2022-10-14T14:10:42.795Z,16.47
2022-10-14T14:13:28.808Z,13.73
2022-10-14T14:15:58.811Z,13.57
2022-10-14T14:18:38.211Z,18.13
2022-10-14T14:21:19.449Z,23.73
2022-10-14T14:23:53.812Z,17.07
2022-10-14T14:26:29.116Z,20.40
2022-10-14T14:28:59.560Z,17.37
2022-10-14T14:32:01.391Z,20.90
2022-10-14T14:34:24.781Z,20.37
2022-10-14T14:37:01.409Z,21.33
2022-10-14T14:39:35.142Z,17.50
2022-10-14T14:42:06.620Z,36.53
2022-10-14T14:44:37.530Z,26.63
2022-10-14T14:47:09.831Z,24.17
2022-10-14T14:49:41.973Z,18.87
2022-10-14T14:52:15.240Z,16.30
2022-10-14T14:54:46.775Z,15.27
2022-10-14T14:57:19.957Z,13.37
2022-10-14T14:59:59.311Z,19.83
2022-10-14T15:02:28.428Z,13.53
2022-10-14T15:05:05.920Z,15.90
2022-10-14T15:07:36.981Z,15.80
2022-10-14T15:10:09.452Z,16.17
2022-10-14T15:12:42.854Z,13.17
2022-10-14T15:18:15.992Z,18.93
2022-10-14T15:20:45.429Z,15.90
2022-10-14T15:23:43.208Z,17.03
2022-10-14T15:26:34.850Z,16.03
2022-10-14T15:29:18.992Z,21.63
2022-10-14T15:32:08.843Z,20.67
2022-10-14T15:34:58.869Z,15.63
2022-10-14T15:37:28.078Z,18.43
2022-10-14T15:40:04.742Z,13.87
2022-10-14T15:42:33.778Z,17.23
2022-10-14T15:45:19.525Z,19.67
2022-10-14T15:47:54.071Z,19.63
2022-10-14T15:50:28.380Z,19.53
2022-10-14T15:52:59.506Z,17.73
2022-10-14T15:55:35.629Z,16.40
2022-10-14T15:58:05.505Z,17.90
2022-10-14T16:00:37.070Z,21.13
2022-10-14T16:03:08.197Z,19.07
2022-10-14T16:05:44.815Z,18.93
2022-10-14T16:08:15.337Z,15.80
2022-10-14T16:10:47.901Z,19.67
2022-10-14T16:13:17.346Z,18.37
2022-10-14T16:15:51.282Z,18.77
2022-10-14T16:18:21.754Z,21.70
2022-10-14T16:20:53.900Z,21.40
2022-10-14T16:23:28.392Z,21.80
2022-10-14T16:26:02.524Z,20.97
2022-10-14T16:28:32.273Z,22.40
2022-10-14T16:31:05.138Z,22.00
2022-10-14T16:33:41.794Z,21.87
2022-10-14T16:36:16.861Z,18.47
2022-10-14T16:38:45.928Z,20.53
2022-10-14T16:41:15.207Z,22.87
2022-10-14T16:43:45.277Z,24.60
2022-10-14T16:46:17.770Z,21.50
2022-10-14T16:48:47.972Z,19.80
2022-10-14T16:53:53.079Z,24.23
2022-10-14T16:56:40.621Z,29.37
2022-10-14T16:59:10.225Z,23.87
2022-10-14T17:01:42.144Z,25.97
2022-10-14T17:04:12.820Z,24.93
2022-10-14T17:06:43.761Z,28.57
2022-10-14T17:09:17.938Z,28.20
2022-10-14T17:11:50.164Z,26.50
2022-10-14T17:14:24.524Z,24.57
2022-10-14T17:16:54.179Z,28.10
2022-10-14T17:19:24.741Z,25.17
2022-10-14T17:21:56.284Z,30.20
2022-10-14T17:24:26.444Z,24.67
2022-10-14T17:26:58.759Z,27.00
2022-10-14T17:29:29.157Z,30.23
2022-10-14T17:31:58.551Z,34.33
2022-10-14T17:34:28.080Z,40.03
2022-10-14T17:36:59.924Z,35.03
2022-10-14T17:39:29.937Z,39.43
2022-10-14T17:42:02.741Z,38.77
2022-10-14T17:44:32.762Z,36.27
2022-10-14T17:47:03.639Z,37.07
2022-10-14T17:49:33.346Z,40.07
2022-10-14T17:52:05.362Z,41.53
2022-10-14T17:54:36.414Z,38.53
2022-10-14T17:57:06.846Z,37.70
2022-10-14T17:59:35.911Z,42.53
2022-10-14T18:02:05.429Z,38.93
2022-10-14T18:04:35.554Z,39.27
2022-10-14T18:07:06.481Z,42.93
2022-10-14T18:09:35.745Z,36.80
2022-10-14T18:12:10.090Z,46.37
2022-10-14T18:14:45.372Z,41.63
2022-10-14T18:17:14.395Z,36.40
2022-10-14T18:19:51.813Z,38.57
2022-10-14T18:22:24.450Z,41.40
2022-10-14T18:24:53.998Z,44.07
2022-10-14T18:27:25.569Z,37.57
2022-10-14T18:29:58.118Z,40.40
2022-10-14T18:32:27.356Z,46.63
2022-10-14T18:34:56.338Z,41.33
2022-10-14T18:37:27.597Z,45.60
2022-10-14T18:39:59.875Z,39.37
2022-10-14T18:42:30.501Z,38.90
2022-10-14T18:45:00.279Z,39.93
2022-10-14T18:47:35.500Z,42.17
2022-10-14T18:50:12.329Z,35.53
2022-10-14T18:52:43.289Z,36.87
2022-10-14T18:55:12.378Z,46.23
2022-10-14T18:57:43.243Z,46.97
2022-10-14T19:00:18.176Z,47.20
2022-10-14T19:02:47.792Z,52.07
2022-10-14T19:05:32.955Z,57.13
2022-10-14T19:08:08.345Z,53.70
2022-10-14T19:10:37.373Z,52.10
2022-10-14T19:13:07.941Z,51.67
2022-10-14T19:15:46.906Z,53.93
2022-10-14T19:18:19.815Z,53.77
2022-10-14T19:20:57.026Z,45.77
2022-10-14T19:23:27.712Z,47.90
2022-10-14T19:25:59.538Z,43.67
2022-10-14T19:28:31.506Z,44.67
2022-10-14T19:31:01.007Z,39.20
2022-10-14T19:33:30.290Z,45.03
2022-10-14T19:36:01.193Z,44.63
2022-10-14T19:38:31.884Z,43.83
2022-10-14T19:41:02.988Z,42.70
2022-10-14T19:43:34.903Z,42.60
2022-10-14T19:46:12.415Z,52.10
2022-10-14T19:48:42.427Z,50.87
2022-10-14T19:51:13.966Z,65.97
2022-10-14T19:53:44.354Z,80.97
2022-10-14T19:56:14.835Z,100.47
2022-10-14T19:58:45.069Z,87.30
2022-10-14T20:01:16.513Z,72.33
2022-10-14T20:03:49.083Z,63.27
2022-10-14T20:06:20.819Z,70.90
2022-10-14T20:09:01.750Z,69.63
2022-10-14T20:11:31.434Z,62.27
2022-10-14T20:14:02.465Z,63.27
2022-10-14T20:16:35.229Z,52.60
2022-10-14T20:19:04.441Z,50.97
2022-10-14T20:21:33.505Z,52.47
2022-10-14T20:24:06.489Z,49.70
2022-10-14T20:26:36.281Z,44.70
2022-10-14T20:29:06.129Z,47.20
2022-10-14T20:31:35.687Z,46.37
2022-10-14T20:34:10.288Z,50.27
2022-10-14T20:36:40.487Z,52.67
2022-10-14T20:39:12.598Z,51.70
2022-10-14T20:41:41.748Z,52.63
2022-10-14T20:44:10.787Z,57.67
2022-10-14T20:46:40.750Z,52.97
2022-10-14T20:49:10.294Z,54.00
2022-10-14T20:51:39.804Z,53.53
2022-10-14T20:54:11.946Z,49.57
2022-10-14T20:56:44.350Z,51.43
2022-10-14T20:59:15.144Z,46.60
2022-10-14T21:01:46.928Z,48.47
2022-10-14T21:04:16.329Z,54.50
2022-10-14T21:06:46.491Z,56.47
2022-10-14T21:09:16.859Z,52.97
2022-10-14T21:11:46.690Z,50.13
2022-10-14T21:14:15.775Z,50.13
2022-10-14T21:16:46.085Z,48.93
2022-10-14T21:19:18.610Z,54.27
2022-10-14T21:21:50.322Z,50.30
2022-10-14T21:24:24.769Z,56.13
2022-10-14T21:26:55.405Z,44.67
2022-10-14T21:29:25.553Z,60.77
2022-10-14T21:31:55.703Z,59.03
2022-10-14T21:34:25.483Z,63.47
2022-10-14T21:36:54.506Z,62.33
2022-10-14T21:39:27.888Z,57.10
2022-10-14T21:41:57.538Z,57.07
2022-10-14T21:44:27.097Z,56.43
2022-10-14T21:46:56.154Z,62.90
2022-10-14T21:49:25.545Z,62.07
2022-10-14T21:51:55.151Z,62.10
2022-10-14T21:54:26.272Z,69.83
2022-10-14T21:56:58.763Z,67.07
2022-10-14T21:59:37.604Z,71.73
2022-10-14T22:02:07.487Z,71.33
2022-10-14T22:04:38.364Z,65.07
2022-10-14T22:07:11.751Z,60.57
2022-10-14T22:09:42.399Z,68.60
2022-10-14T22:12:12.702Z,71.20
2022-10-14T22:14:41.550Z,73.47
2022-10-14T22:17:10.425Z,67.50
2022-10-14T22:19:39.351Z,68.33
2022-10-14T22:22:09.197Z,64.27
2022-10-14T22:24:40.957Z,58.77
2022-10-14T22:27:11.502Z,72.73
2022-10-14T22:29:40.557Z,65.80
2022-10-14T22:32:09.488Z,65.90
2022-10-14T22:34:38.737Z,63.90
2022-10-14T22:37:07.830Z,66.47
2022-10-14T22:39:39.446Z,68.80
2022-10-14T22:42:11.647Z,68.50
2022-10-14T22:44:41.796Z,61.20
2022-10-14T22:47:10.387Z,61.33
2022-10-14T22:49:39.453Z,62.70
2022-10-14T22:52:08.433Z,61.57
2022-10-14T22:54:37.565Z,55.40
2022-10-14T22:57:06.351Z,59.43
2022-10-14T22:59:35.103Z,61.87
2022-10-14T23:02:05.638Z,60.63
2022-10-14T23:04:34.538Z,66.00
2022-10-14T23:07:06.905Z,69.70
2022-10-14T23:12:09.578Z,62.67
2022-10-14T23:14:40.111Z,58.40
2022-10-14T23:17:10.518Z,58.57
2022-10-14T23:19:39.360Z,56.90
2022-10-14T23:22:08.155Z,61.80
2022-10-14T23:24:37.030Z,60.50
2022-10-14T23:27:05.755Z,55.80
2022-10-14T23:29:34.690Z,50.20
2022-10-14T23:32:04.309Z,53.23
2022-10-14T23:34:35.896Z,51.30
2022-10-14T23:37:06.986Z,54.07
2022-10-14T23:39:36.017Z,55.20
2022-10-14T23:42:05.388Z,57.93
2022-10-14T23:44:36.382Z,53.90
2022-10-14T23:47:05.326Z,54.37
2022-10-14T23:49:35.306Z,55.10
2022-10-14T23:52:04.515Z,52.50
2022-10-14T23:54:33.478Z,52.37
2022-10-14T23:57:02.081Z,57.37
2022-10-14T23:59:34.418Z,57.87
